Time;durP1;ratioP1;P1;durP2;ratioP2;P2;SDS_P1;SDS_P2;PMS_P1;PMS_P2;Temp;Humidity;BMP_temperature;BMP_pressure;BME280_temperature;BME280_humidity;BME280_pressure;Samples;Min_cycle;Max_cycle;Signal;HPM_P1;HPM_P2
2022/01/14 00:02:03;;;;;;;5.75;2.03;;;;;;;5.84;87.10;101097.31;5071503;28;20052;-50
2022/01/14 00:04:30;;;;;;;7.50;2.67;;;;;;;5.84;87.16;101090.47;5069575;28;20053;-52
2022/01/14 00:06:58;;;;;;;8.10;3.22;;;;;;;5.83;87.31;101088.75;5071461;28;20044;-49
2022/01/14 00:09:25;;;;;;;7.28;3.85;;;;;;;5.83;87.42;101075.00;5068137;28;20059;-48
2022/01/14 00:11:56;;;;;;;9.15;3.67;;;;;;;5.85;87.30;101099.06;5069315;28;20047;-49
2022/01/14 00:14:37;;;;;;;8.85;4.45;;;;;;;5.84;87.12;101102.47;5068163;28;20052;-49
2022/01/14 00:17:06;;;;;;;5.43;3.58;;;;;;;5.84;86.89;101079.31;5064639;28;20509;-49
2022/01/14 00:19:34;;;;;;;7.60;2.90;;;;;;;5.82;86.92;101065.56;5066673;28;20054;-50
2022/01/14 00:22:06;;;;;;;4.03;1.80;;;;;;;5.82;87.33;101057.84;5067998;28;20069;-51
2022/01/14 00:32:54;;;;;;;4.82;3.40;;;;;;;5.83;87.38;101039.00;5068553;28;20103;-50
2022/01/14 00:35:21;;;;;;;5.15;1.70;;;;;;;5.83;87.49;101027.00;5067928;28;20604;-52
2022/01/14 00:37:49;;;;;;;4.32;2.00;;;;;;;5.85;87.37;101012.44;5066910;28;20135;-51
2022/01/14 00:40:16;;;;;;;5.38;1.95;;;;;;;5.87;87.10;101010.75;5069672;28;20123;-50
2022/01/14 00:42:43;;;;;;;4.97;1.60;;;;;;;5.87;87.32;101020.19;5070647;28;20544;-48
2022/01/14 00:45:12;;;;;;;5.75;1.60;;;;;;;5.87;87.19;101027.91;5069234;28;20052;-51
2022/01/14 00:47:40;;;;;;;4.63;1.67;;;;;;;5.87;87.21;101025.34;5073512;28;20468;-49
2022/01/14 00:50:09;;;;;;;5.47;1.95;;;;;;;5.86;87.39;100996.16;5071787;28;20068;-51
2022/01/14 00:52:36;;;;;;;4.05;1.85;;;;;;;5.86;87.31;100975.59;5073295;28;20056;-50
2022/01/14 00:55:05;;;;;;;3.85;1.88;;;;;;;5.86;87.05;101010.75;5071004;28;20428;-50
2022/01/14 01:00:15;;;;;;;4.07;2.33;;;;;;;5.85;87.53;101015.03;5071603;28;20131;-50
2022/01/14 01:02:43;;;;;;;4.20;1.40;;;;;;;5.84;87.49;100997.00;5071321;28;20059;-49
2022/01/14 01:05:12;;;;;;;5.50;1.52;;;;;;;5.83;87.47;100974.69;5074270;28;20374;-49
2022/01/14 01:07:40;;;;;;;8.93;1.85;;;;;;;5.84;87.61;100982.41;5063492;28;20052;-51
2022/01/14 01:10:10;;;;;;;4.82;1.35;;;;;;;5.87;87.66;101002.19;5061623;28;20048;-51
2022/01/14 01:12:46;;;;;;;4.32;1.08;;;;;;;5.86;87.69;100972.16;5060732;28;20505;-49
2022/01/14 01:15:17;;;;;;;5.05;1.35;;;;;;;5.86;87.90;100974.72;5061154;28;20066;-51
2022/01/14 01:17:45;;;;;;;4.88;1.30;;;;;;;5.85;87.91;100962.69;5060277;28;20041;-50
2022/01/14 01:20:15;;;;;;;5.85;1.63;;;;;;;5.83;87.95;100974.69;5058606;28;20063;-50
2022/01/14 01:22:43;;;;;;;5.85;1.38;;;;;;;5.84;87.88;100986.69;5060493;28;20139;-51
2022/01/14 01:25:12;;;;;;;3.67;1.35;;;;;;;5.85;87.90;100967.84;5059265;28;20057;-49
2022/01/14 01:27:42;;;;;;;5.65;1.70;;;;;;;5.83;88.08;100960.09;5058212;28;20094;-52
2022/01/14 01:30:15;;;;;;;6.35;2.10;;;;;;;5.82;88.25;100957.50;5058395;28;20641;-50
2022/01/14 01:32:47;;;;;;;5.85;2.50;;;;;;;5.84;87.95;100971.25;5069390;28;20055;-52
2022/01/14 01:35:15;;;;;;;8.25;5.32;;;;;;;5.83;88.33;100959.25;5062966;28;20055;-52
2022/01/14 01:37:42;;;;;;;9.85;6.95;;;;;;;5.84;88.39;100982.41;5057896;28;20049;-51
2022/01/14 01:40:11;;;;;;;7.80;5.13;;;;;;;5.86;88.18;100972.16;5057769;28;20082;-50
2022/01/14 01:42:41;;;;;;;3.83;2.30;;;;;;;5.86;88.32;100943.84;5058782;28;20067;-51
2022/01/14 01:45:11;;;;;;;5.85;2.80;;;;;;;5.86;88.41;100974.72;5064217;28;20385;-52
2022/01/14 01:47:39;;;;;;;7.50;2.95;;;;;;;5.87;88.18;100951.59;5058590;28;20142;-49
2022/01/14 01:50:13;;;;;;;5.57;2.63;;;;;;;5.87;88.34;100950.72;5061104;28;20465;-50
2022/01/14 01:52:40;;;;;;;9.40;5.53;;;;;;;5.88;88.34;100952.44;5059751;28;21823;-52
2022/01/14 01:55:08;;;;;;;6.07;2.53;;;;;;;5.89;88.49;100923.31;5059821;28;20059;-50
2022/01/14 01:57:36;;;;;;;6.90;3.15;;;;;;;5.89;88.80;100954.19;5061927;28;20059;-52
2022/01/14 02:00:06;;;;;;;7.10;1.63;;;;;;;5.89;88.73;100941.31;5064400;28;20060;-49
2022/01/14 02:02:34;;;;;;;5.28;2.58;;;;;;;5.90;88.89;100955.94;5055611;28;20045;-48
2022/01/14 02:05:01;;;;;;;6.70;1.50;;;;;;;5.88;89.00;100937.88;5068163;28;20040;-50
2022/01/14 02:07:30;;;;;;;5.45;1.00;;;;;;;5.89;89.13;100933.59;5060573;28;20052;-49
2022/01/14 02:09:57;;;;;;;2.35;0.80;;;;;;;5.89;89.23;100928.44;5057835;28;20052;-51
2022/01/14 02:12:24;;;;;;;3.35;0.90;;;;;;;5.88;88.78;100907.00;5058486;28;20059;-53
2022/01/14 02:15:08;;;;;;;3.42;0.85;;;;;;;5.89;89.40;100915.59;5058914;28;20045;-50
2022/01/14 02:17:47;;;;;;;3.30;1.10;;;;;;;5.90;89.26;100914.78;5059341;28;20072;-52
2022/01/14 02:23:04;;;;;;;3.35;0.88;;;;;;;5.88;89.02;100867.56;5060004;28;20055;-51
2022/01/14 02:25:32;;;;;;;4.47;0.90;;;;;;;5.88;88.87;100904.44;5057598;28;20048;-52
2022/01/14 02:28:02;;;;;;;3.25;0.65;;;;;;;5.90;89.27;100876.19;5058318;28;20576;-50
2022/01/14 02:30:31;;;;;;;2.90;0.60;;;;;;;5.93;89.01;100879.66;5061616;28;20054;-51
2022/01/14 02:32:58;;;;;;;2.92;0.77;;;;;;;5.94;88.84;100849.66;5060766;28;20481;-51
2022/01/14 02:35:27;;;;;;;1.75;0.60;;;;;;;5.95;88.60;100831.66;5062474;28;20510;-51
2022/01/14 02:37:55;;;;;;;4.65;0.65;;;;;;;5.97;88.62;100811.09;5065961;28;20066;-51
2022/01/14 02:40:23;;;;;;;2.47;0.55;;;;;;;5.98;nan;100835.97;5059451;28;20067;-52
2022/01/14 02:42:51;;;;;;;4.38;0.68;;;;;;;5.99;88.48;100851.44;5058487;28;20045;-51
2022/01/14 02:45:19;;;;;;;3.63;0.82;;;;;;;5.98;88.82;100833.41;5058740;28;20393;-49
2022/01/14 02:47:47;;;;;;;4.70;1.02;;;;;;;5.99;88.78;100853.13;5059120;28;20040;-50
2022/01/14 02:50:18;;;;;;;3.55;0.60;;;;;;;6.00;88.42;100847.16;5059437;28;20056;-49
2022/01/14 02:52:57;;;;;;;2.05;0.60;;;;;;;6.00;88.60;100831.72;5057420;28;20171;-51
2022/01/14 02:55:29;;;;;;;3.03;0.73;;;;;;;5.99;88.21;100833.41;5063753;28;20049;-49
2022/01/14 02:57:59;;;;;;;3.05;0.40;;;;;;;5.98;88.27;100835.97;5059767;28;20421;-51
2022/01/14 03:00:29;;;;;;;2.47;0.50;;;;;;;5.98;88.10;100826.53;5056257;28;20048;-53
2022/01/14 03:02:59;;;;;;;3.13;0.52;;;;;;;5.98;87.97;100839.41;5057907;28;20413;-52
2022/01/14 03:05:28;;;;;;;2.47;0.50;;;;;;;5.97;88.14;100818.81;5057995;28;20474;-49
2022/01/14 03:07:57;;;;;;;1.65;0.60;;;;;;;5.95;88.06;100815.34;5060040;28;20429;-53
2022/01/14 03:10:25;;;;;;;2.33;0.43;;;;;;;5.96;88.08;100824.81;5057138;28;20070;-50
2022/01/14 03:12:52;;;;;;;2.22;0.50;;;;;;;5.93;88.30;100797.31;5055481;28;20101;-51
2022/01/14 03:15:20;;;;;;;1.10;0.60;;;;;;;5.95;88.14;100807.63;5057799;28;20052;-51
2022/01/14 03:17:47;;;;;;;3.00;0.47;;;;;;;5.93;88.27;100827.34;5063530;28;20405;-49
2022/01/14 03:20:45;;;;;;;1.83;0.80;;;;;;;5.92;88.35;100815.31;5059092;28;20052;-52
2022/01/14 03:23:06;;;;;;;2.83;0.50;;;;;;;5.92;88.29;100820.47;5057020;28;20076;-50
2022/01/14 03:25:48;;;;;;;2.10;0.50;;;;;;;5.92;88.39;100817.91;5065165;28;20151;-49
2022/01/14 03:28:16;;;;;;;4.32;0.60;;;;;;;5.92;88.33;100817.91;5062037;28;20076;-51
2022/01/14 03:30:43;;;;;;;1.85;0.40;;;;;;;5.94;88.07;100829.06;5057994;28;20186;-50
2022/01/14 03:33:10;;;;;;;1.70;0.57;;;;;;;5.95;88.65;100799.91;5057057;28;20105;-49
2022/01/14 03:35:38;;;;;;;2.05;0.50;;;;;;;5.96;88.59;100809.38;5057682;28;20064;-50
2022/01/14 03:38:07;;;;;;;3.67;0.40;;;;;;;5.98;88.73;100825.69;5057610;28;20056;-51
2022/01/14 03:40:34;;;;;;;0.95;0.35;;;;;;;6.00;88.77;100800.81;5056371;28;20049;-52
2022/01/14 03:43:01;;;;;;;1.73;0.40;;;;;;;6.03;88.83;100811.16;5055798;28;20036;-55
2022/01/14 03:45:28;;;;;;;2.80;0.60;;;;;;;6.06;88.85;100793.19;5056231;28;20051;-49
2022/01/14 03:47:55;;;;;;;2.25;0.50;;;;;;;6.09;88.98;100803.50;5057436;28;20051;-53
2022/01/14 03:50:23;;;;;;;2.63;0.38;;;;;;;6.11;88.99;100781.22;5056900;28;20059;-51
2022/01/14 03:52:50;;;;;;;1.45;0.43;;;;;;;6.15;89.21;100772.69;5055995;28;20080;-53
2022/01/14 03:55:19;;;;;;;3.05;0.73;;;;;;;6.16;89.20;100774.41;5056965;28;20044;-49
2022/01/14 03:57:46;;;;;;;3.10;0.50;;;;;;;6.19;89.39;100794.16;5054633;28;20505;-50
2022/01/14 04:00:14;;;;;;;2.35;0.90;;;;;;;6.21;89.52;100819.06;5056195;28;20056;-50
2022/01/14 04:02:41;;;;;;;4.80;1.00;;;;;;;6.23;89.53;100808.78;5056114;28;20139;-51
2022/01/14 04:05:10;;;;;;;3.00;0.70;;;;;;;6.25;89.89;100805.41;5056530;28;20139;-51
2022/01/14 04:07:37;;;;;;;4.82;1.05;;;;;;;6.27;89.86;100803.72;5057912;28;20041;-52
2022/01/14 04:10:10;;;;;;;2.42;0.75;;;;;;;6.27;89.96;100808.88;5063797;28;20061;-50
2022/01/14 04:12:47;;;;;;;2.75;0.77;;;;;;;6.28;89.96;100810.59;5057418;28;20221;-51
2022/01/14 04:18:00;;;;;;;3.75;0.93;;;;;;;6.27;90.68;100771.97;5058265;28;20542;-51
2022/01/14 04:20:28;;;;;;;2.10;0.70;;;;;;;6.27;90.62;100757.38;5058178;28;20090;-49
2022/01/14 04:22:55;;;;;;;3.72;1.10;;;;;;;6.28;90.15;100761.69;5060451;28;20053;-51
2022/01/14 04:25:23;;;;;;;1.98;0.70;;;;;;;6.30;90.10;100762.56;5069701;28;20060;-50
2022/01/14 04:27:52;;;;;;;2.65;0.90;;;;;;;6.30;89.71;100765.13;5069804;28;20056;-51
2022/01/14 04:30:20;;;;;;;2.70;0.90;;;;;;;6.32;89.79;100766.00;5065814;28;20052;-52
2022/01/14 04:32:47;;;;;;;3.28;0.60;;;;;;;6.36;89.81;100773.75;5063671;28;20139;-52
2022/01/14 04:35:14;;;;;;;3.53;0.93;;;;;;;6.39;89.29;100737.75;5063999;28;20052;-49
2022/01/14 04:37:42;;;;;;;4.30;1.42;;;;;;;6.41;89.30;100718.00;5064329;28;20056;-51
2022/01/14 04:40:10;;;;;;;4.97;0.93;;;;;;;6.42;89.48;100727.47;5064167;28;20048;-52
2022/01/14 04:42:41;;;;;;;2.53;0.73;;;;;;;6.43;89.00;100701.72;5061584;28;20052;-50
2022/01/14 04:45:11;;;;;;;4.25;1.50;;;;;;;6.46;88.79;100716.34;5066397;28;20059;-51
2022/01/14 04:47:45;;;;;;;5.00;1.00;;;;;;;6.47;88.63;100725.78;5064161;28;20049;-53
2022/01/14 04:50:13;;;;;;;5.53;1.38;;;;;;;6.49;88.75;100716.38;5065737;28;20056;-50
2022/01/14 04:52:41;;;;;;;3.95;1.75;;;;;;;6.50;88.66;100707.78;5063314;28;20051;-52
2022/01/14 04:55:11;;;;;;;6.40;1.00;;;;;;;6.52;88.45;100708.66;5059927;28;20217;-51
2022/01/14 04:57:39;;;;;;;6.25;1.27;;;;;;;6.52;88.12;100690.63;5060442;28;20048;-51
2022/01/14 05:00:11;;;;;;;7.90;1.33;;;;;;;6.52;88.12;100686.34;5062654;28;20068;-52
2022/01/14 05:02:38;;;;;;;3.60;1.30;;;;;;;6.52;88.50;100675.19;5063173;28;20049;-51
2022/01/14 05:05:06;;;;;;;8.15;1.42;;;;;;;6.54;88.32;100699.22;5063841;28;20056;-53
2022/01/14 05:07:34;;;;;;;4.65;0.88;;;;;;;6.54;88.31;100676.91;5062729;28;20044;-52
2022/01/14 05:10:18;;;;;;;4.55;1.17;;;;;;;6.55;88.25;100700.97;5063278;28;20531;-54
2022/01/14 05:12:46;;;;;;;5.30;1.65;;;;;;;6.56;88.15;100702.69;5063311;28;20044;-49
2022/01/14 05:15:18;;;;;;;8.23;1.10;;;;;;;6.56;88.14;100698.38;5061175;28;20067;-51
2022/01/14 05:17:46;;;;;;;5.30;1.40;;;;;;;6.58;87.67;100707.00;5064581;28;20905;-52
2022/01/14 05:20:14;;;;;;;9.02;1.85;;;;;;;6.57;87.98;100678.66;5062112;28;20539;-51
2022/01/14 05:22:42;;;;;;;7.35;2.40;;;;;;;6.59;87.76;100692.41;5068305;28;20047;-51
2022/01/14 05:25:11;;;;;;;7.50;1.92;;;;;;;6.58;88.13;100691.53;5064996;28;20152;-49
2022/01/14 05:27:38;;;;;;;7.22;1.67;;;;;;;6.58;88.16;100716.44;5062189;28;20067;-52
2022/01/14 05:30:08;;;;;;;9.27;1.67;;;;;;;6.58;88.55;100721.59;5063199;28;20044;-51
2022/01/14 05:32:37;;;;;;;6.93;1.77;;;;;;;6.57;88.53;100696.69;5063075;28;20045;-51
2022/01/14 05:35:05;;;;;;;4.75;1.30;;;;;;;6.55;88.59;100706.09;5059897;28;20554;-51
2022/01/14 05:37:32;;;;;;;5.35;1.65;;;;;;;6.56;89.11;100710.41;5060550;28;20062;-49
2022/01/14 05:39:59;;;;;;;6.82;1.20;;;;;;;6.54;89.22;100714.69;5061718;28;20136;-53
2022/01/14 05:42:33;;;;;;;8.05;1.90;;;;;;;6.52;89.34;100690.63;5066515;28;20562;-49
2022/01/14 05:45:00;;;;;;;4.82;1.50;;;;;;;6.53;89.62;100692.34;5057538;28;20062;-52
2022/01/14 05:47:28;;;;;;;5.60;1.33;;;;;;;6.49;89.74;100700.91;5061332;28;20067;-52
2022/01/14 05:49:56;;;;;;;3.40;1.08;;;;;;;6.47;89.29;100687.16;5063560;28;21898;-52
2022/01/14 05:52:23;;;;;;;8.43;1.63;;;;;;;6.45;89.53;100682.00;5061381;28;20044;-50
2022/01/14 05:54:53;;;;;;;6.90;1.40;;;;;;;6.44;89.33;100666.53;5063042;28;21878;-51
2022/01/14 05:57:20;;;;;;;5.32;1.27;;;;;;;6.45;89.30;100694.00;5065397;28;20058;-52
2022/01/14 05:59:48;;;;;;;7.10;1.85;;;;;;;6.45;89.40;100676.84;5061277;28;20056;-49
2022/01/14 06:02:15;;;;;;;9.27;1.58;;;;;;;6.44;88.81;100676.84;5061248;28;20079;-50
2022/01/14 06:04:43;;;;;;;5.60;1.38;;;;;;;6.44;88.61;100687.16;5060820;28;20465;-51
2022/01/14 06:07:12;;;;;;;3.95;1.27;;;;;;;6.43;88.49;100688.00;5059644;28;20060;-53
2022/01/14 06:09:40;;;;;;;7.13;1.90;;;;;;;6.43;88.69;100675.13;5060491;28;20071;-51
2022/01/14 06:12:08;;;;;;;6.80;1.60;;;;;;;6.44;88.70;100690.56;5058095;28;20045;-52
2022/01/14 06:14:35;;;;;;;4.47;1.48;;;;;;;6.45;88.41;100668.25;5058369;28;20041;-52
2022/01/14 06:17:02;;;;;;;5.45;1.42;;;;;;;6.46;88.76;100682.88;5061820;28;20079;-51
2022/01/14 06:19:29;;;;;;;8.15;1.42;;;;;;;6.44;88.42;100666.53;5060533;28;20052;-52
2022/01/14 06:21:57;;;;;;;4.20;1.25;;;;;;;6.44;88.83;100692.28;5062438;28;20394;-49
2022/01/14 06:24:26;;;;;;;10.32;1.35;;;;;;;6.45;88.51;100694.88;5060028;28;20056;-50
2022/01/14 06:26:53;;;;;;;6.20;1.38;;;;;;;6.48;88.53;100663.13;5057508;28;20063;-52
2022/01/14 06:29:21;;;;;;;5.40;1.40;;;;;;;6.50;88.47;100676.88;5058300;28;20072;-52
2022/01/14 06:31:49;;;;;;;8.35;1.73;;;;;;;6.49;88.43;100676.03;5060552;28;20549;-51
2022/01/14 06:34:16;;;;;;;9.93;2.20;;;;;;;6.51;88.08;100694.06;5057012;28;20060;-50
2022/01/14 06:36:43;;;;;;;5.07;1.83;;;;;;;6.50;88.32;100661.44;5056961;28;20048;-51
2022/01/14 06:39:11;;;;;;;6.50;2.15;;;;;;;6.52;88.57;100680.34;5058684;28;20462;-51
2022/01/14 06:41:40;;;;;;;7.35;2.13;;;;;;;6.51;88.73;100652.84;5061677;28;20690;-51
2022/01/14 06:44:07;;;;;;;9.60;2.15;;;;;;;6.51;88.87;100694.06;5062025;28;20044;-51
2022/01/14 06:46:35;;;;;;;9.63;2.50;;;;;;;6.52;88.62;100695.78;5057266;28;20048;-50
2022/01/14 06:49:02;;;;;;;9.13;2.63;;;;;;;6.53;88.98;100666.59;5058625;28;20056;-53
2022/01/14 06:51:29;;;;;;;10.68;2.25;;;;;;;6.52;89.19;100685.47;5065492;28;20041;-53
2022/01/14 06:53:56;;;;;;;8.18;3.13;;;;;;;6.49;89.25;100681.16;5057913;28;20048;-53
2022/01/14 06:56:23;;;;;;;8.30;2.08;;;;;;;6.48;89.85;100670.88;5058412;28;20493;-52
2022/01/14 06:58:52;;;;;;;10.25;2.78;;;;;;;6.46;90.43;100675.13;5057396;28;20045;-52
2022/01/14 07:01:19;;;;;;;9.60;2.50;;;;;;;6.45;90.20;100712.91;5059897;28;20049;-50
2022/01/14 07:03:46;;;;;;;9.32;2.25;;;;;;;6.45;90.78;100657.97;5056638;28;20481;-49
2022/01/14 07:06:14;;;;;;;7.57;2.03;;;;;;;6.47;90.49;100729.22;5056917;28;20148;-51
2022/01/14 07:08:41;;;;;;;9.98;2.03;;;;;;;6.49;90.15;100711.22;5057902;28;20261;-51
2022/01/14 07:11:08;;;;;;;6.57;2.10;;;;;;;6.50;90.45;100702.63;5049687;28;20047;-59
2022/01/14 07:13:35;;;;;;;11.50;2.75;;;;;;;6.51;90.43;100714.66;5058364;28;20053;-52
2022/01/14 07:16:04;;;;;;;6.70;2.08;;;;;;;6.54;90.05;100704.38;5056131;28;20060;-56
2022/01/14 07:18:31;;;;;;;13.27;1.75;;;;;;;6.57;89.72;100699.25;5056985;28;20099;-57
2022/01/14 07:20:58;;;;;;;14.82;2.58;;;;;;;6.61;89.87;100703.56;5053567;28;20583;-53
2022/01/14 07:23:26;;;;;;;10.70;2.80;;;;;;;6.63;89.47;100674.41;5055497;28;20492;-50
2022/01/14 07:25:53;;;;;;;7.43;1.88;;;;;;;6.68;89.17;100692.47;5060439;28;20074;-53
2022/01/14 07:28:20;;;;;;;9.32;2.33;;;;;;;6.72;88.63;100683.91;5056868;28;20669;-53
2022/01/14 07:30:47;;;;;;;8.98;1.98;;;;;;;6.79;87.27;100703.72;5058197;28;20063;-54
2022/01/14 07:33:16;;;;;;;9.48;1.75;;;;;;;6.88;86.38;100659.97;5063363;28;20060;-54
2022/01/14 07:35:44;;;;;;;11.77;1.83;;;;;;;6.97;85.65;100685.78;5061980;28;20059;-55
2022/01/14 07:38:11;;;;;;;7.45;2.05;;;;;;;7.06;85.04;100678.97;5059579;28;20055;-54
2022/01/14 07:40:39;;;;;;;8.80;1.92;;;;;;;7.13;84.17;100660.09;5060961;28;20052;-51
2022/01/14 07:43:07;;;;;;;13.15;1.88;;;;;;;7.22;83.21;100675.59;5061799;28;20040;-51
2022/01/14 07:45:34;;;;;;;13.43;2.97;;;;;;;7.27;82.85;100689.34;5060165;28;20044;-52
2022/01/14 07:48:01;;;;;;;9.15;1.98;;;;;;;7.34;81.10;100719.50;5059102;28;20071;-51
2022/01/14 07:50:30;;;;;;;10.10;1.63;;;;;;;7.43;80.06;100674.84;5061994;28;20056;-50
2022/01/14 07:52:57;;;;;;;6.50;1.42;;;;;;;7.48;80.25;100689.47;5061238;28;20063;-48
2022/01/14 07:55:25;;;;;;;14.57;2.50;;;;;;;7.54;79.60;100693.78;5060193;28;20535;-47
2022/01/14 07:57:52;;;;;;;11.77;2.83;;;;;;;7.57;79.94;100704.97;5058473;28;20052;-48
2022/01/14 08:00:19;;;;;;;6.65;1.58;;;;;;;7.62;79.49;100692.09;5058537;28;20067;-47
2022/01/14 08:02:46;;;;;;;10.25;2.25;;;;;;;7.65;79.28;100698.97;5060025;28;20059;-52
2022/01/14 08:05:15;;;;;;;10.15;2.45;;;;;;;7.66;78.74;100674.91;5059907;28;20113;-48
2022/01/14 08:07:47;;;;;;;9.68;1.70;;;;;;;7.68;78.65;100679.19;5060479;28;20040;-48
2022/01/14 08:10:14;;;;;;;11.95;1.88;;;;;;;7.71;78.56;100696.41;5057877;28;20503;-48
2022/01/14 08:12:42;;;;;;;12.15;2.13;;;;;;;7.73;78.51;100684.38;5058296;28;21993;-45
2022/01/14 08:15:10;;;;;;;7.63;1.73;;;;;;;7.72;79.16;100683.50;5057798;28;20052;-57
2022/01/14 08:17:38;;;;;;;13.98;2.42;;;;;;;7.72;78.74;100690.38;5057248;28;20063;-48
2022/01/14 08:20:07;;;;;;;10.52;2.30;;;;;;;7.70;79.04;100694.69;5061191;28;20588;-46
2022/01/14 08:22:34;;;;;;;8.27;2.08;;;;;;;7.71;78.84;100719.63;5060513;28;20049;-47
2022/01/14 08:25:04;;;;;;;7.75;1.58;;;;;;;7.70;78.64;100702.44;5057190;28;20044;-46
2022/01/14 08:27:31;;;;;;;7.95;2.00;;;;;;;7.69;78.71;100714.47;5056749;28;20052;-57
2022/01/14 08:29:59;;;;;;;8.20;1.98;;;;;;;7.71;78.89;100711.88;5060878;28;20060;-47
2022/01/14 08:32:26;;;;;;;8.18;2.00;;;;;;;7.71;77.66;100710.16;5059876;28;20048;-54
2022/01/14 08:34:53;;;;;;;14.00;2.50;;;;;;;7.73;77.97;100700.72;5056084;28;20102;-52
2022/01/14 08:37:20;;;;;;;8.13;1.90;;;;;;;7.76;76.78;100705.03;5056295;28;20398;-50
2022/01/14 08:39:47;;;;;;;15.63;2.60;;;;;;;7.79;77.17;100715.34;5055858;28;20048;-53
2022/01/14 08:42:17;;;;;;;9.77;2.08;;;;;;;7.83;77.71;100722.28;5062754;28;20474;-50
2022/01/14 08:44:45;;;;;;;11.20;2.28;;;;;;;7.87;77.21;100718.84;5059621;28;20135;-51
2022/01/14 08:47:12;;;;;;;12.20;2.35;;;;;;;7.90;76.44;100724.00;5054702;28;20052;-54
2022/01/14 08:49:41;;;;;;;18.70;2.45;;;;;;;7.96;76.30;100707.66;5053915;28;20061;-50
2022/01/14 08:52:08;;;;;;;15.20;2.78;;;;;;;8.00;75.89;100710.25;5058690;28;20436;-54
2022/01/14 08:54:36;;;;;;;13.32;2.38;;;;;;;8.07;75.82;100686.16;5058849;28;20106;-51
2022/01/14 08:57:03;;;;;;;9.18;1.92;;;;;;;8.13;75.47;100722.31;5055554;28;20059;-56
2022/01/14 08:59:33;;;;;;;11.15;1.90;;;;;;;8.21;74.85;100724.91;5057583;28;20079;-55
2022/01/14 09:02:01;;;;;;;9.10;1.92;;;;;;;8.29;74.90;100717.16;5055616;28;20052;-56
2022/01/14 09:04:28;;;;;;;11.52;2.22;;;;;;;8.37;74.17;100710.34;5055051;28;20052;-57
2022/01/14 09:06:56;;;;;;;6.30;2.00;;;;;;;8.40;74.16;100715.50;5056107;28;20444;-52
2022/01/14 09:09:23;;;;;;;9.93;2.25;;;;;;;8.41;74.26;100743.06;5056184;28;20064;-55
2022/01/14 09:11:51;;;;;;;13.00;2.22;;;;;;;8.36;74.28;100744.78;5059283;28;20049;-54
2022/01/14 09:14:18;;;;;;;8.45;2.10;;;;;;;8.32;74.09;100759.34;5060100;28;20044;-55
2022/01/14 09:16:47;;;;;;;6.38;1.75;;;;;;;8.24;73.97;100718.03;5061801;28;20131;-58
2022/01/14 09:19:15;;;;;;;4.80;1.85;;;;;;;8.19;73.80;100719.75;5061591;28;20054;-58
2022/01/14 09:21:44;;;;;;;7.25;1.40;;;;;;;8.14;74.04;100703.38;5064184;28;20047;-58
2022/01/14 09:24:12;;;;;;;11.55;2.10;;;;;;;8.06;73.90;100707.69;5060257;28;20055;-58
2022/01/14 09:26:40;;;;;;;6.95;1.80;;;;;;;8.04;74.21;100708.53;5060631;28;20052;-58
2022/01/14 09:29:08;;;;;;;7.70;1.90;;;;;;;8.02;73.77;100703.38;5059711;28;20703;-58
2022/01/14 09:31:36;;;;;;;10.57;1.90;;;;;;;8.03;74.25;100733.50;5061865;28;20048;-60
2022/01/14 09:34:05;;;;;;;7.13;1.90;;;;;;;8.05;73.64;100724.03;5064298;28;20060;-50
2022/01/14 09:36:32;;;;;;;7.65;1.55;;;;;;;8.09;73.90;100724.91;5055952;28;20158;-50
2022/01/14 09:39:00;;;;;;;7.85;1.95;;;;;;;8.13;73.94;100708.56;5058910;28;20048;-50
2022/01/14 09:41:27;;;;;;;10.13;1.83;;;;;;;8.13;73.77;100717.16;5059082;28;20121;-50
2022/01/14 09:43:55;;;;;;;7.43;1.85;;;;;;;8.12;73.91;100705.09;5059458;28;20048;-48
2022/01/14 09:46:23;;;;;;;7.20;1.83;;;;;;;8.13;73.90;100730.06;5057947;28;20790;-49
2022/01/14 09:48:51;;;;;;;10.75;2.60;;;;;;;8.14;73.82;100754.16;5062891;28;20493;-50
2022/01/14 09:51:20;;;;;;;10.73;2.05;;;;;;;8.11;72.81;100718.88;5066669;28;20462;-52
2022/01/14 09:53:48;;;;;;;8.60;1.88;;;;;;;8.12;73.22;100718.00;5069727;28;20622;-51
2022/01/14 09:56:16;;;;;;;10.55;1.77;;;;;;;8.14;73.13;100713.72;5071196;28;20064;-52
2022/01/14 09:58:47;;;;;;;12.02;2.30;;;;;;;8.20;73.09;100736.97;5069172;28;20040;-51
2022/01/14 10:01:16;;;;;;;18.67;2.88;;;;;;;8.24;72.55;100761.06;5068669;28;20044;-52
2022/01/14 10:03:53;;;;;;;20.42;2.55;;;;;;;8.21;71.36;100751.59;5067947;28;20485;-57
2022/01/14 10:06:49;;;;;;;13.80;2.33;;;;;;;8.23;72.62;100760.19;5070939;28;20040;-57
2022/01/14 10:09:20;;;;;;;11.43;2.08;;;;;;;8.28;73.55;100746.44;5071083;28;20053;-56
2022/01/14 10:12:01;;;;;;;7.47;2.28;;;;;;;8.30;72.38;100761.06;5067688;28;20413;-56
2022/01/14 10:14:30;;;;;;;6.60;1.73;;;;;;;8.31;72.37;100761.94;5068476;28;20464;-56
2022/01/14 10:16:58;;;;;;;11.68;1.92;;;;;;;8.28;71.90;100772.25;5065330;28;20102;-57
2022/01/14 10:19:28;;;;;;;9.27;2.03;;;;;;;8.23;72.41;100774.84;5062378;28;20044;-56
2022/01/14 10:21:57;;;;;;;6.70;2.53;;;;;;;8.22;71.80;100763.66;5060808;28;20059;-54
2022/01/14 10:24:29;;;;;;;11.32;1.90;;;;;;;8.22;72.34;100793.78;5059580;28;20465;-58
2022/01/14 10:26:59;;;;;;;9.38;2.28;;;;;;;8.26;72.96;100797.22;5057692;28;20143;-57
2022/01/14 10:29:31;;;;;;;18.83;2.97;;;;;;;8.23;72.14;100819.59;5057563;28;20056;-57
2022/01/14 10:32:02;;;;;;;12.68;2.53;;;;;;;8.22;71.60;100786.88;5058367;28;20052;-57
2022/01/14 10:34:32;;;;;;;12.80;2.13;;;;;;;8.22;71.88;100789.47;5058037;28;20044;-53
2022/01/14 10:37:13;;;;;;;13.18;2.28;;;;;;;8.19;70.94;100796.34;5058460;28;20078;-48
2022/01/14 10:39:46;;;;;;;5.53;1.75;;;;;;;8.10;71.16;100783.41;5060919;28;20401;-48
2022/01/14 10:42:25;;;;;;;9.80;1.98;;;;;;;8.02;71.32;100801.47;5064254;28;20084;-56
2022/01/14 10:44:56;;;;;;;14.38;4.30;;;;;;;8.02;71.13;100809.22;5064361;28;20094;-56
2022/01/14 10:47:26;;;;;;;18.27;5.95;;;;;;;8.04;71.32;100793.72;5057085;28;20067;-57
2022/01/14 10:49:59;;;;;;;6.35;2.85;;;;;;;8.07;71.25;100796.31;5055933;28;20050;-54
2022/01/14 10:52:28;;;;;;;13.93;4.00;;;;;;;8.07;71.40;100804.94;5057514;28;20055;-57
2022/01/14 10:54:58;;;;;;;9.90;3.33;;;;;;;8.07;71.04;100825.59;5059544;28;20070;-57
2022/01/14 10:57:27;;;;;;;11.27;2.25;;;;;;;8.09;70.27;100828.16;5057738;28;20048;-59
2022/01/14 10:59:58;;;;;;;9.82;2.88;;;;;;;8.10;70.55;100823.00;5059013;28;20049;-57
2022/01/14 11:02:33;;;;;;;10.77;2.88;;;;;;;8.16;70.06;100820.44;5067470;28;20064;-57
2022/01/14 11:05:05;;;;;;;14.10;3.22;;;;;;;8.16;69.70;100841.09;5060978;28;20052;-57
2022/01/14 11:07:35;;;;;;;14.10;4.38;;;;;;;8.14;69.48;100837.66;5067726;28;20051;-55
2022/01/14 11:10:02;;;;;;;15.48;3.60;;;;;;;8.14;69.01;100841.94;5058506;28;20126;-56
2022/01/14 11:12:30;;;;;;;13.50;4.07;;;;;;;8.12;68.75;100849.69;5057560;28;20053;-57
2022/01/14 11:14:58;;;;;;;8.85;2.35;;;;;;;8.10;68.95;100835.91;5059293;28;21616;-53
2022/01/14 11:17:25;;;;;;;12.27;3.65;;;;;;;8.11;68.54;100817.00;5060140;28;20052;-57
2022/01/14 11:19:52;;;;;;;12.13;4.18;;;;;;;8.19;67.85;100840.25;5056575;28;20058;-56
2022/01/14 11:25:06;;;;;;;10.40;3.35;;;;;;;8.22;67.35;100854.03;5057383;28;20122;-56
2022/01/14 11:27:34;;;;;;;9.88;3.55;;;;;;;8.17;67.75;100842.81;5063557;28;20040;-57
2022/01/14 11:30:01;;;;;;;17.80;5.10;;;;;;;8.11;67.98;100853.13;5056015;28;20199;-57
2022/01/14 11:32:28;;;;;;;6.88;2.03;;;;;;;8.07;67.79;100848.81;5057849;28;20048;-57
2022/01/14 11:34:56;;;;;;;9.15;2.30;;;;;;;7.96;67.93;100855.66;5063555;28;20040;-57
2022/01/14 11:37:34;;;;;;;7.65;1.60;;;;;;;7.84;67.30;100853.91;5063505;28;20504;-57
2022/01/14 11:40:03;;;;;;;7.22;1.48;;;;;;;7.81;67.96;100871.94;5059045;28;20127;-56
2022/01/14 11:42:43;;;;;;;10.43;2.20;;;;;;;7.78;67.23;100881.38;5055343;28;20053;-48
2022/01/14 11:45:13;;;;;;;9.93;2.20;;;;;;;7.72;67.30;100868.44;5060243;28;20143;-57
2022/01/14 11:48:02;;;;;;;4.30;1.40;;;;;;;7.70;67.65;100875.31;5057523;28;20474;-57
2022/01/14 11:50:46;;;;;;;7.68;2.13;;;;;;;7.66;67.07;100870.97;5060214;28;20122;-59
2022/01/14 11:53:42;;;;;;;5.57;1.63;;;;;;;7.62;67.41;100876.97;5059859;28;20113;-56
2022/01/14 11:56:47;;;;;;;8.25;2.08;;;;;;;7.55;67.18;100874.38;5057745;28;20110;-53
2022/01/14 11:59:47;;;;;;;9.68;1.60;;;;;;;7.52;67.75;100882.09;5033227;28;20056;-53
2022/01/14 12:02:34;;;;;;;9.25;2.35;;;;;;;7.47;67.25;100883.78;5057812;28;20051;-56